Time;durP1;ratioP1;P1;durP2;ratioP2;P2;SDS_P1;SDS_P2;PMS_P1;PMS_P2;Temp;Humidity;BMP_temperature;BMP_pressure;BME280_temperature;BME280_humidity;BME280_pressure;Samples;Min_cycle;Max_cycle;Signal;HPM_P1;HPM_P2
2021/08/20 00:01:45;;;;;;;6.40;4.10;;;16.40;98.30;;;;;;5077683;23;20438;-82
2021/08/20 00:03:49;;;;;;;7.43;3.73;;;16.40;98.30;;;;;;5077475;23;20518;-82
2021/08/20 00:05:52;;;;;;;7.57;4.23;;;16.30;98.30;;;;;;5077944;23;20487;-82
2021/08/20 00:07:55;;;;;;;5.60;3.77;;;16.30;98.30;;;;;;5078027;23;20459;-82
2021/08/20 00:10:00;;;;;;;7.07;3.90;;;16.30;98.30;;;;;;5077292;23;20436;-82
2021/08/20 00:12:03;;;;;;;8.93;4.80;;;16.30;98.30;;;;;;5070388;23;20515;-82
2021/08/20 00:14:07;;;;;;;6.13;3.90;;;16.40;98.30;;;;;;5077780;23;20428;-82
2021/08/20 00:16:10;;;;;;;12.10;5.07;;;16.40;98.30;;;;;;5076987;23;20442;-82
2021/08/20 00:18:13;;;;;;;5.83;4.00;;;16.30;98.30;;;;;;5077094;23;20435;-82
2021/08/20 00:20:16;;;;;;;7.80;4.53;;;16.40;98.30;;;;;;5070203;23;20490;-82
2021/08/20 00:22:20;;;;;;;6.63;4.30;;;16.40;98.30;;;;;;5078284;23;20458;-82
2021/08/20 00:24:23;;;;;;;8.87;4.30;;;16.40;98.30;;;;;;5070581;23;20514;-82
2021/08/20 00:26:27;;;;;;;7.80;4.60;;;16.40;98.30;;;;;;5070875;23;20511;-82
2021/08/20 00:28:30;;;;;;;6.23;4.30;;;16.40;98.30;;;;;;5078039;23;20441;-82
2021/08/20 00:30:33;;;;;;;7.20;4.47;;;16.40;98.30;;;;;;5079042;23;20435;-82
2021/08/20 00:32:37;;;;;;;7.87;4.40;;;16.40;98.30;;;;;;5078336;23;20479;-82
2021/08/20 00:34:40;;;;;;;7.50;4.30;;;16.30;98.30;;;;;;5078638;23;20432;-82
2021/08/20 00:36:43;;;;;;;7.27;4.47;;;16.30;98.30;;;;;;5078489;23;20428;-82
2021/08/20 00:38:46;;;;;;;13.20;4.60;;;16.20;98.30;;;;;;5078743;23;20436;-82
2021/08/20 00:40:49;;;;;;;7.20;4.80;;;16.10;98.30;;;;;;5079208;23;20459;-83
2021/08/20 00:42:54;;;;;;;7.70;4.87;;;16.10;98.30;;;;;;5071840;23;20472;-82
2021/08/20 00:44:57;;;;;;;9.27;4.83;;;16.10;98.30;;;;;;5071957;23;20833;-82
2021/08/20 00:47:00;;;;;;;9.70;4.37;;;16.10;98.30;;;;;;5091567;23;20914;-82
2021/08/20 00:49:03;;;;;;;8.17;4.33;;;16.00;98.30;;;;;;5087941;23;20450;-82
2021/08/20 00:51:10;;;;;;;6.97;4.67;;;16.10;98.30;;;;;;5094693;23;20435;-82
2021/08/20 00:53:13;;;;;;;6.10;4.40;;;16.00;98.30;;;;;;5086419;23;20535;-82
2021/08/20 00:55:16;;;;;;;5.90;4.30;;;16.00;98.30;;;;;;5086260;23;20996;-80
2021/08/20 00:57:19;;;;;;;7.00;5.07;;;15.90;98.30;;;;;;5094833;23;20432;-83
2021/08/20 00:59:25;;;;;;;8.90;4.87;;;15.90;98.30;;;;;;5086245;23;20443;-83
2021/08/20 01:01:28;;;;;;;5.97;4.43;;;15.90;98.30;;;;;;5086277;23;20506;-82
2021/08/20 01:03:32;;;;;;;7.40;4.70;;;15.80;98.30;;;;;;5080015;23;20454;-83
2021/08/20 01:05:36;;;;;;;7.20;5.10;;;15.80;98.30;;;;;;5080932;23;20416;-83
2021/08/20 01:07:39;;;;;;;8.27;4.70;;;15.80;98.30;;;;;;5080447;23;20431;-82
2021/08/20 01:09:42;;;;;;;9.17;4.93;;;15.80;98.30;;;;;;5079526;23;20515;-82
2021/08/20 01:11:45;;;;;;;12.90;5.80;;;15.80;98.30;;;;;;5079170;23;20519;-82
2021/08/20 01:13:48;;;;;;;7.07;4.83;;;15.80;98.30;;;;;;5078587;23;21025;-82
2021/08/20 01:15:54;;;;;;;6.87;5.30;;;15.80;98.30;;;;;;5079040;23;20431;-82
2021/08/20 01:17:57;;;;;;;8.87;5.17;;;15.70;98.30;;;;;;5079401;23;20415;-82
2021/08/20 01:20:00;;;;;;;7.33;4.33;;;15.70;98.30;;;;;;5079116;23;20428;-82
2021/08/20 01:22:05;;;;;;;10.53;5.73;;;15.70;98.30;;;;;;5078914;23;20753;-82
2021/08/20 01:24:08;;;;;;;8.80;5.07;;;15.70;98.30;;;;;;5078568;23;20415;-82
2021/08/20 01:26:12;;;;;;;6.23;4.83;;;15.70;98.30;;;;;;5070044;23;20439;-82
2021/08/20 01:28:15;;;;;;;12.90;6.30;;;15.70;98.30;;;;;;5078800;23;20434;-82
2021/08/20 01:30:18;;;;;;;9.60;4.90;;;15.80;98.30;;;;;;5078904;23;20455;-82
2021/08/20 01:32:22;;;;;;;9.13;5.10;;;15.70;98.30;;;;;;5078471;23;20455;-83
2021/08/20 01:34:25;;;;;;;11.87;6.47;;;15.70;98.30;;;;;;5078399;23;20933;-82
2021/08/20 01:36:28;;;;;;;8.67;4.80;;;15.70;98.30;;;;;;5079090;23;20427;-82
2021/08/20 01:38:34;;;;;;;7.70;5.20;;;15.60;98.30;;;;;;5078823;23;20432;-83
2021/08/20 01:40:37;;;;;;;6.40;5.03;;;15.70;98.30;;;;;;5071369;23;20423;-82
2021/08/20 01:42:41;;;;;;;9.10;5.37;;;15.60;98.30;;;;;;5070243;23;20538;-83
2021/08/20 01:44:44;;;;;;;8.87;5.40;;;15.60;98.30;;;;;;5078525;23;21204;-82
2021/08/20 01:46:47;;;;;;;8.03;5.37;;;15.60;98.30;;;;;;5078808;23;20424;-83
2021/08/20 01:48:53;;;;;;;8.10;6.03;;;15.50;98.30;;;;;;5079022;23;20518;-82
2021/08/20 01:50:55;;;;;;;6.37;5.40;;;15.50;98.30;;;;;;5078928;23;20433;-83
2021/08/20 01:52:58;;;;;;;8.17;5.50;;;15.50;98.30;;;;;;5070513;23;20467;-82
2021/08/20 01:55:01;;;;;;;9.70;5.43;;;15.50;98.30;;;;;;5078014;23;20447;-83
2021/08/20 01:57:05;;;;;;;8.23;5.50;;;15.50;98.30;;;;;;5079329;23;20755;-82
2021/08/20 01:59:09;;;;;;;6.83;5.43;;;15.40;98.30;;;;;;5079093;23;20427;-82
2021/08/20 02:01:13;;;;;;;12.87;6.17;;;15.40;98.30;;;;;;5077897;23;20427;-82
2021/08/20 02:03:16;;;;;;;6.80;5.10;;;15.50;98.30;;;;;;5078304;23;20765;-82
2021/08/20 02:05:19;;;;;;;10.63;5.70;;;15.50;98.30;;;;;;5077787;23;20467;-82
2021/08/20 02:07:22;;;;;;;10.23;5.70;;;15.50;98.30;;;;;;5070580;23;20439;-83
2021/08/20 02:09:25;;;;;;;7.37;5.47;;;15.50;98.30;;;;;;5079163;23;20424;-82
2021/08/20 02:11:28;;;;;;;8.23;5.53;;;15.50;98.30;;;;;;5079821;23;20507;-82
2021/08/20 02:13:31;;;;;;;7.93;6.00;;;15.50;98.30;;;;;;5078900;23;20455;-82
2021/08/20 02:15:37;;;;;;;9.57;5.67;;;15.50;98.30;;;;;;5079132;23;20510;-82
2021/08/20 02:17:40;;;;;;;10.30;5.67;;;15.50;98.30;;;;;;5079573;23;20408;-82
2021/08/20 02:19:43;;;;;;;10.30;5.97;;;15.50;98.30;;;;;;5079117;23;20428;-81
2021/08/20 02:21:46;;;;;;;8.50;5.60;;;15.50;98.30;;;;;;5079359;23;20431;-83
2021/08/20 02:23:49;;;;;;;7.80;5.93;;;15.50;98.30;;;;;;5071398;23;20506;-83
2021/08/20 02:25:52;;;;;;;9.40;7.03;;;15.50;98.30;;;;;;5079809;23;20936;-83
2021/08/20 02:27:55;;;;;;;9.63;6.23;;;15.50;98.30;;;;;;5079766;23;20420;-82
2021/08/20 02:29:58;;;;;;;7.40;6.07;;;15.50;98.30;;;;;;5079195;23;20486;-83
2021/08/20 02:32:03;;;;;;;9.20;5.67;;;15.40;98.30;;;;;;5076281;23;20458;-82
2021/08/20 02:34:05;;;;;;;9.13;5.43;;;15.50;98.30;;;;;;5075550;23;20535;-82
2021/08/20 02:36:08;;;;;;;10.60;5.90;;;15.50;98.30;;;;;;5076846;23;20426;-82
2021/08/20 02:38:11;;;;;;;9.20;5.40;;;15.40;98.30;;;;;;5076082;23;20435;-82
2021/08/20 02:40:15;;;;;;;12.33;6.70;;;15.40;98.30;;;;;;5068491;23;20519;-81
2021/08/20 02:42:18;;;;;;;9.80;6.23;;;15.40;98.30;;;;;;5076045;23;20471;-82
2021/08/20 02:44:21;;;;;;;9.77;6.07;;;15.40;98.30;;;;;;5068102;23;20428;-82
2021/08/20 02:46:24;;;;;;;9.70;6.73;;;15.40;98.30;;;;;;5076387;23;20948;-82
2021/08/20 02:48:28;;;;;;;9.60;6.37;;;15.30;98.30;;;;;;5076379;23;20810;-82
2021/08/20 02:50:31;;;;;;;9.07;6.53;;;15.40;98.30;;;;;;5076181;23;20432;-82
2021/08/20 02:52:34;;;;;;;8.93;6.37;;;15.40;98.30;;;;;;5076328;23;20935;-83
2021/08/20 02:54:37;;;;;;;11.80;6.57;;;15.50;98.30;;;;;;5076064;23;20949;-82
2021/08/20 02:56:40;;;;;;;12.47;7.03;;;15.50;98.30;;;;;;5076272;23;20917;-82
2021/08/20 02:58:43;;;;;;;10.80;7.77;;;15.50;98.30;;;;;;5068519;23;20436;-82
2021/08/20 03:00:47;;;;;;;12.10;7.63;;;15.40;98.30;;;;;;5076094;23;20914;-81
2021/08/20 03:02:51;;;;;;;10.23;7.00;;;15.40;98.30;;;;;;5068673;23;20491;-82
2021/08/20 03:05:02;;;;;;;8.93;6.70;;;15.40;98.30;;;;;;5068116;23;20510;-81
2021/08/20 03:07:05;;;;;;;15.23;7.60;;;15.40;98.30;;;;;;5075762;23;20492;-82
2021/08/20 03:09:08;;;;;;;10.63;6.57;;;15.40;98.30;;;;;;5076228;23;20765;-83
2021/08/20 03:11:11;;;;;;;10.77;7.13;;;15.30;98.30;;;;;;5076661;23;20428;-82
2021/08/20 03:13:14;;;;;;;9.80;6.70;;;15.40;98.30;;;;;;5076548;23;20472;-83
2021/08/20 03:15:23;;;;;;;7.70;6.63;;;15.40;98.30;;;;;;5076258;23;20440;-82
2021/08/20 03:17:26;;;;;;;9.60;6.80;;;15.40;98.30;;;;;;5077376;23;20920;-83
2021/08/20 03:19:30;;;;;;;10.20;6.77;;;15.40;98.30;;;;;;5078732;23;20435;-82
2021/08/20 03:21:34;;;;;;;8.73;7.33;;;15.40;98.30;;;;;;5078363;23;20432;-83
2021/08/20 03:23:37;;;;;;;13.80;7.10;;;15.30;98.30;;;;;;5078373;23;20467;-83
2021/08/20 03:25:40;;;;;;;10.03;7.13;;;15.30;98.30;;;;;;5078300;23;20435;-82
2021/08/20 03:27:43;;;;;;;13.43;7.43;;;15.30;98.30;;;;;;5077409;23;20434;-81
2021/08/20 03:29:54;;;;;;;9.83;7.23;;;15.30;98.30;;;;;;5078197;23;20483;-82
2021/08/20 03:31:57;;;;;;;11.20;7.27;;;15.30;98.30;;;;;;5076709;23;20431;-82
2021/08/20 03:34:00;;;;;;;10.80;7.70;;;15.30;98.30;;;;;;5077519;23;20439;-82
2021/08/20 03:36:04;;;;;;;11.90;7.17;;;15.30;98.30;;;;;;5078316;23;20837;-82
2021/08/20 03:38:08;;;;;;;11.30;8.17;;;15.40;98.30;;;;;;5077671;23;20424;-82
2021/08/20 03:40:11;;;;;;;11.07;7.33;;;15.40;98.30;;;;;;5078394;23;20528;-82
2021/08/20 03:42:14;;;;;;;16.27;8.53;;;15.40;98.30;;;;;;5070214;23;20452;-82
2021/08/20 03:44:17;;;;;;;13.40;8.17;;;15.40;98.30;;;;;;5078057;23;20821;-82
2021/08/20 03:46:20;;;;;;;12.17;8.20;;;15.40;98.30;;;;;;5078539;23;20434;-82
2021/08/20 03:48:24;;;;;;;13.67;8.00;;;15.30;98.30;;;;;;5077758;23;20902;-82
2021/08/20 03:50:27;;;;;;;13.63;8.93;;;15.30;98.30;;;;;;5069637;23;20914;-82
